sensor_id;sensor_type;location;lat;lon;timestamp;temperature;humidity
75994;DHT22;64680;53.800;9.988;2023-10-09T00:01:49;9.60;99.90
75994;DHT22;64680;53.800;9.988;2023-10-09T00:04:16;9.60;99.90
75994;DHT22;64680;53.800;9.988;2023-10-09T00:06:42;9.60;99.90
75994;DHT22;64680;53.800;9.988;2023-10-09T00:09:08;9.60;99.90
75994;DHT22;64680;53.800;9.988;2023-10-09T00:11:56;9.60;99.90
75994;DHT22;64680;53.800;9.988;2023-10-09T00:14:27;9.60;99.90
75994;DHT22;64680;53.800;9.988;2023-10-09T00:16:56;9.60;99.90
75994;DHT22;64680;53.800;9.988;2023-10-09T00:19:41;9.60;99.90
75994;DHT22;64680;53.800;9.988;2023-10-09T00:22:08;9.60;99.90
75994;DHT22;64680;53.800;9.988;2023-10-09T00:24:45;9.60;99.90
75994;DHT22;64680;53.800;9.988;2023-10-09T00:27:11;9.60;99.90
75994;DHT22;64680;53.800;9.988;2023-10-09T00:29:41;9.60;99.90
75994;DHT22;64680;53.800;9.988;2023-10-09T00:32:15;9.60;99.90
75994;DHT22;64680;53.800;9.988;2023-10-09T00:34:53;9.60;99.90
75994;DHT22;64680;53.800;9.988;2023-10-09T00:37:23;9.60;99.90
75994;DHT22;64680;53.800;9.988;2023-10-09T00:39:51;9.60;99.90
75994;DHT22;64680;53.800;9.988;2023-10-09T00:42:24;9.50;99.90
75994;DHT22;64680;53.800;9.988;2023-10-09T00:44:59;9.40;99.90
75994;DHT22;64680;53.800;9.988;2023-10-09T00:47:34;9.40;99.90
75994;DHT22;64680;53.800;9.988;2023-10-09T00:50:08;9.40;99.90
75994;DHT22;64680;53.800;9.988;2023-10-09T00:52:52;9.40;99.90
75994;DHT22;64680;53.800;9.988;2023-10-09T00:55:27;9.40;99.90
75994;DHT22;64680;53.800;9.988;2023-10-09T00:58:04;9.40;99.90
75994;DHT22;64680;53.800;9.988;2023-10-09T01:00:35;9.40;99.90
75994;DHT22;64680;53.800;9.988;2023-10-09T01:03:11;9.40;99.90
75994;DHT22;64680;53.800;9.988;2023-10-09T01:05:56;9.40;99.90
75994;DHT22;64680;53.800;9.988;2023-10-09T01:08:27;9.40;99.90
75994;DHT22;64680;53.800;9.988;2023-10-09T01:11:15;9.40;99.90
75994;DHT22;64680;53.800;9.988;2023-10-09T01:13:45;9.40;99.90
75994;DHT22;64680;53.800;9.988;2023-10-09T01:16:15;9.30;99.90
75994;DHT22;64680;53.800;9.988;2023-10-09T01:18:44;9.30;99.90
75994;DHT22;64680;53.800;9.988;2023-10-09T01:21:10;9.30;99.90
75994;DHT22;64680;53.800;9.988;2023-10-09T01:23:44;9.30;99.90
75994;DHT22;64680;53.800;9.988;2023-10-09T01:26:39;9.30;99.90
75994;DHT22;64680;53.800;9.988;2023-10-09T01:29:13;9.30;99.90
75994;DHT22;64680;53.800;9.988;2023-10-09T01:34:18;9.30;99.90
75994;DHT22;64680;53.800;9.988;2023-10-09T01:36:44;9.20;99.90
75994;DHT22;64680;53.800;9.988;2023-10-09T01:39:14;9.20;99.90
75994;DHT22;64680;53.800;9.988;2023-10-09T01:42:11;9.30;99.90
75994;DHT22;64680;53.800;9.988;2023-10-09T01:44:49;9.30;99.90
75994;DHT22;64680;53.800;9.988;2023-10-09T01:47:14;9.20;99.90
75994;DHT22;64680;53.800;9.988;2023-10-09T01:49:43;9.20;99.90
75994;DHT22;64680;53.800;9.988;2023-10-09T01:52:12;9.20;99.90
75994;DHT22;64680;53.800;9.988;2023-10-09T01:54:47;9.20;99.90
75994;DHT22;64680;53.800;9.988;2023-10-09T01:57:17;9.20;99.90
75994;DHT22;64680;53.800;9.988;2023-10-09T01:59:55;9.10;99.90
75994;DHT22;64680;53.800;9.988;2023-10-09T02:02:25;9.20;99.90
75994;DHT22;64680;53.800;9.988;2023-10-09T02:04:58;9.20;99.90
75994;DHT22;64680;53.800;9.988;2023-10-09T02:07:39;9.20;99.90
75994;DHT22;64680;53.800;9.988;2023-10-09T02:10:20;9.10;99.90
75994;DHT22;64680;53.800;9.988;2023-10-09T02:13:05;9.10;99.90
75994;DHT22;64680;53.800;9.988;2023-10-09T02:15:33;9.10;99.90
75994;DHT22;64680;53.800;9.988;2023-10-09T02:18:09;9.10;99.90
75994;DHT22;64680;53.800;9.988;2023-10-09T02:23:41;9.10;99.90
75994;DHT22;64680;53.800;9.988;2023-10-09T02:26:16;9.10;99.90
75994;DHT22;64680;53.800;9.988;2023-10-09T02:28:55;9.10;99.90
75994;DHT22;64680;53.800;9.988;2023-10-09T02:31:25;9.10;99.90
75994;DHT22;64680;53.800;9.988;2023-10-09T02:33:53;9.00;99.90
75994;DHT22;64680;53.800;9.988;2023-10-09T02:36:24;9.00;99.90
75994;DHT22;64680;53.800;9.988;2023-10-09T02:38:49;9.00;99.90
75994;DHT22;64680;53.800;9.988;2023-10-09T02:41:18;9.10;99.90
75994;DHT22;64680;53.800;9.988;2023-10-09T02:43:46;9.10;99.90
75994;DHT22;64680;53.800;9.988;2023-10-09T02:46:13;9.00;99.90
75994;DHT22;64680;53.800;9.988;2023-10-09T02:48:55;9.10;99.90
75994;DHT22;64680;53.800;9.988;2023-10-09T02:51:23;9.00;99.90
75994;DHT22;64680;53.800;9.988;2023-10-09T02:53:58;9.00;99.90
75994;DHT22;64680;53.800;9.988;2023-10-09T02:56:25;9.00;99.90
75994;DHT22;64680;53.800;9.988;2023-10-09T02:59:01;9.00;99.90
75994;DHT22;64680;53.800;9.988;2023-10-09T03:01:31;9.00;99.90
75994;DHT22;64680;53.800;9.988;2023-10-09T03:03:57;9.00;99.90
75994;DHT22;64680;53.800;9.988;2023-10-09T03:06:24;9.00;99.90
75994;DHT22;64680;53.800;9.988;2023-10-09T03:08:56;9.00;99.90
75994;DHT22;64680;53.800;9.988;2023-10-09T03:11:22;9.00;99.90
75994;DHT22;64680;53.800;9.988;2023-10-09T03:13:48;9.00;99.90
75994;DHT22;64680;53.800;9.988;2023-10-09T03:16:14;9.00;99.90
75994;DHT22;64680;53.800;9.988;2023-10-09T03:18:41;9.00;99.90
75994;DHT22;64680;53.800;9.988;2023-10-09T03:21:08;9.00;99.90
75994;DHT22;64680;53.800;9.988;2023-10-09T03:23:34;9.00;99.90
75994;DHT22;64680;53.800;9.988;2023-10-09T03:25:59;9.00;99.90
75994;DHT22;64680;53.800;9.988;2023-10-09T03:28:25;9.00;99.90
75994;DHT22;64680;53.800;9.988;2023-10-09T03:30:51;9.00;99.90
75994;DHT22;64680;53.800;9.988;2023-10-09T03:33:18;9.00;99.90
75994;DHT22;64680;53.800;9.988;2023-10-09T03:35:44;9.00;99.90
75994;DHT22;64680;53.800;9.988;2023-10-09T03:38:09;9.00;99.90
75994;DHT22;64680;53.800;9.988;2023-10-09T03:40:43;8.90;99.90
75994;DHT22;64680;53.800;9.988;2023-10-09T03:43:10;8.90;99.90
75994;DHT22;64680;53.800;9.988;2023-10-09T03:45:36;8.90;99.90
75994;DHT22;64680;53.800;9.988;2023-10-09T03:48:04;8.90;99.90
75994;DHT22;64680;53.800;9.988;2023-10-09T03:50:37;8.90;99.90
75994;DHT22;64680;53.800;9.988;2023-10-09T03:53:06;8.90;99.90
75994;DHT22;64680;53.800;9.988;2023-10-09T03:55:34;8.90;99.90
75994;DHT22;64680;53.800;9.988;2023-10-09T03:58:00;8.90;99.90
75994;DHT22;64680;53.800;9.988;2023-10-09T04:00:28;8.90;99.90
75994;DHT22;64680;53.800;9.988;2023-10-09T04:02:58;8.90;99.90
75994;DHT22;64680;53.800;9.988;2023-10-09T04:05:25;8.80;99.90
75994;DHT22;64680;53.800;9.988;2023-10-09T04:07:51;8.80;99.90
75994;DHT22;64680;53.800;9.988;2023-10-09T04:10:20;8.80;99.90
75994;DHT22;64680;53.800;9.988;2023-10-09T04:13:04;8.90;99.90
75994;DHT22;64680;53.800;9.988;2023-10-09T04:15:34;8.80;99.90
75994;DHT22;64680;53.800;9.988;2023-10-09T04:18:01;8.70;99.90
75994;DHT22;64680;53.800;9.988;2023-10-09T04:20:28;8.80;99.90
75994;DHT22;64680;53.800;9.988;2023-10-09T04:23:16;8.80;99.90
75994;DHT22;64680;53.800;9.988;2023-10-09T04:25:46;8.80;99.90
75994;DHT22;64680;53.800;9.988;2023-10-09T04:28:16;8.80;99.90
75994;DHT22;64680;53.800;9.988;2023-10-09T04:30:41;8.80;99.90
75994;DHT22;64680;53.800;9.988;2023-10-09T04:33:12;8.80;99.90
75994;DHT22;64680;53.800;9.988;2023-10-09T04:36:09;8.70;99.90
75994;DHT22;64680;53.800;9.988;2023-10-09T04:38:48;8.80;99.90
75994;DHT22;64680;53.800;9.988;2023-10-09T04:41:32;8.70;99.90
75994;DHT22;64680;53.800;9.988;2023-10-09T04:43:59;8.70;99.90
75994;DHT22;64680;53.800;9.988;2023-10-09T04:46:43;8.70;99.90
75994;DHT22;64680;53.800;9.988;2023-10-09T04:49:12;8.70;99.90
75994;DHT22;64680;53.800;9.988;2023-10-09T04:51:54;8.70;99.90
75994;DHT22;64680;53.800;9.988;2023-10-09T04:54:43;8.70;99.90
75994;DHT22;64680;53.800;9.988;2023-10-09T04:57:28;8.70;99.90
75994;DHT22;64680;53.800;9.988;2023-10-09T04:59:54;8.70;99.90
75994;DHT22;64680;53.800;9.988;2023-10-09T05:02:24;8.70;99.90
75994;DHT22;64680;53.800;9.988;2023-10-09T05:04:49;8.70;99.90
75994;DHT22;64680;53.800;9.988;2023-10-09T05:07:35;8.70;99.90
75994;DHT22;64680;53.800;9.988;2023-10-09T05:10:19;8.70;99.90
75994;DHT22;64680;53.800;9.988;2023-10-09T05:12:50;8.70;99.90
75994;DHT22;64680;53.800;9.988;2023-10-09T05:15:25;8.70;99.90
75994;DHT22;64680;53.800;9.988;2023-10-09T05:17:56;8.70;99.90
75994;DHT22;64680;53.800;9.988;2023-10-09T05:20:35;8.70;99.90
75994;DHT22;64680;53.800;9.988;2023-10-09T05:23:21;8.70;99.90
75994;DHT22;64680;53.800;9.988;2023-10-09T05:25:50;8.70;99.90
75994;DHT22;64680;53.800;9.988;2023-10-09T05:28:19;8.70;99.90
75994;DHT22;64680;53.800;9.988;2023-10-09T05:30:59;8.70;99.90
75994;DHT22;64680;53.800;9.988;2023-10-09T05:33:33;8.60;99.90
75994;DHT22;64680;53.800;9.988;2023-10-09T05:36:03;8.60;99.90
75994;DHT22;64680;53.800;9.988;2023-10-09T05:38:50;8.60;99.90
75994;DHT22;64680;53.800;9.988;2023-10-09T05:41:42;8.60;99.90
75994;DHT22;64680;53.800;9.988;2023-10-09T05:44:17;8.60;99.90
75994;DHT22;64680;53.800;9.988;2023-10-09T05:47:01;8.60;99.90
75994;DHT22;64680;53.800;9.988;2023-10-09T05:49:56;8.50;99.90
75994;DHT22;64680;53.800;9.988;2023-10-09T05:52:52;8.60;99.90
75994;DHT22;64680;53.800;9.988;2023-10-09T05:55:18;8.60;99.90
75994;DHT22;64680;53.800;9.988;2023-10-09T05:58:03;8.60;99.90
75994;DHT22;64680;53.800;9.988;2023-10-09T06:00:28;8.60;99.90
75994;DHT22;64680;53.800;9.988;2023-10-09T06:03:13;8.60;99.90
75994;DHT22;64680;53.800;9.988;2023-10-09T06:05:49;8.50;99.90
75994;DHT22;64680;53.800;9.988;2023-10-09T06:08:25;8.50;99.90
75994;DHT22;64680;53.800;9.988;2023-10-09T06:10:53;8.50;99.90
75994;DHT22;64680;53.800;9.988;2023-10-09T06:13:32;8.50;99.90
75994;DHT22;64680;53.800;9.988;2023-10-09T06:16:04;8.50;99.90
75994;DHT22;64680;53.800;9.988;2023-10-09T06:18:59;8.50;99.90
75994;DHT22;64680;53.800;9.988;2023-10-09T06:21:37;8.50;99.90
75994;DHT22;64680;53.800;9.988;2023-10-09T06:24:24;8.50;99.90
75994;DHT22;64680;53.800;9.988;2023-10-09T06:26:54;8.50;99.90
75994;DHT22;64680;53.800;9.988;2023-10-09T06:29:41;8.50;99.90
75994;DHT22;64680;53.800;9.988;2023-10-09T06:32:13;8.50;99.90
75994;DHT22;64680;53.800;9.988;2023-10-09T06:34:59;8.40;99.90
75994;DHT22;64680;53.800;9.988;2023-10-09T06:37:44;8.50;99.90
75994;DHT22;64680;53.800;9.988;2023-10-09T06:40:38;8.50;99.90
75994;DHT22;64680;53.800;9.988;2023-10-09T06:43:23;8.50;99.90
75994;DHT22;64680;53.800;9.988;2023-10-09T06:45:50;8.50;99.90
75994;DHT22;64680;53.800;9.988;2023-10-09T06:48:34;8.50;99.90
75994;DHT22;64680;53.800;9.988;2023-10-09T06:51:07;8.50;99.90
75994;DHT22;64680;53.800;9.988;2023-10-09T06:53:41;8.50;99.90
75994;DHT22;64680;53.800;9.988;2023-10-09T06:56:27;8.50;99.90
75994;DHT22;64680;53.800;9.988;2023-10-09T06:58:59;8.40;99.90
75994;DHT22;64680;53.800;9.988;2023-10-09T07:01:29;8.40;99.90
75994;DHT22;64680;53.800;9.988;2023-10-09T07:04:04;8.40;99.90
75994;DHT22;64680;53.800;9.988;2023-10-09T07:06:48;8.40;99.90
75994;DHT22;64680;53.800;9.988;2023-10-09T07:09:14;8.50;99.90
75994;DHT22;64680;53.800;9.988;2023-10-09T07:11:41;8.50;99.90
75994;DHT22;64680;53.800;9.988;2023-10-09T07:14:13;8.50;99.90
75994;DHT22;64680;53.800;9.988;2023-10-09T07:17:02;8.50;99.90
75994;DHT22;64680;53.800;9.988;2023-10-09T07:19:44;8.60;99.90
75994;DHT22;64680;53.800;9.988;2023-10-09T07:22:13;8.60;99.90
75994;DHT22;64680;53.800;9.988;2023-10-09T07:24:52;8.60;99.90
75994;DHT22;64680;53.800;9.988;2023-10-09T07:27:36;8.70;99.90
75994;DHT22;64680;53.800;9.988;2023-10-09T07:30:18;8.60;99.90
75994;DHT22;64680;53.800;9.988;2023-10-09T07:33:06;8.60;99.90
75994;DHT22;64680;53.800;9.988;2023-10-09T07:35:36;8.70;99.90
75994;DHT22;64680;53.800;9.988;2023-10-09T07:38:12;8.70;99.90
75994;DHT22;64680;53.800;9.988;2023-10-09T07:40:40;8.70;99.90
75994;DHT22;64680;53.800;9.988;2023-10-09T07:43:41;8.70;99.90
75994;DHT22;64680;53.800;9.988;2023-10-09T07:49:16;8.80;99.90
75994;DHT22;64680;53.800;9.988;2023-10-09T07:51:49;8.80;99.90
75994;DHT22;64680;53.800;9.988;2023-10-09T07:54:18;8.90;99.90
75994;DHT22;64680;53.800;9.988;2023-10-09T07:56:58;8.90;99.90
75994;DHT22;64680;53.800;9.988;2023-10-09T07:59:35;8.80;99.90
75994;DHT22;64680;53.800;9.988;2023-10-09T08:02:06;8.90;99.90
75994;DHT22;64680;53.800;9.988;2023-10-09T08:04:39;8.90;99.90
75994;DHT22;64680;53.800;9.988;2023-10-09T08:07:14;8.90;99.90
75994;DHT22;64680;53.800;9.988;2023-10-09T08:10:00;9.00;99.90
75994;DHT22;64680;53.800;9.988;2023-10-09T08:12:46;9.00;99.90
75994;DHT22;64680;53.800;9.988;2023-10-09T08:15:16;9.00;99.90
75994;DHT22;64680;53.800;9.988;2023-10-09T08:17:45;9.10;99.90
75994;DHT22;64680;53.800;9.988;2023-10-09T08:20:22;9.10;99.90
75994;DHT22;64680;53.800;9.988;2023-10-09T08:22:54;9.10;99.90
75994;DHT22;64680;53.800;9.988;2023-10-09T08:25:24;9.00;99.90
75994;DHT22;64680;53.800;9.988;2023-10-09T08:28:03;9.10;99.90
75994;DHT22;64680;53.800;9.988;2023-10-09T08:30:48;9.00;99.90
75994;DHT22;64680;53.800;9.988;2023-10-09T08:33:29;9.00;99.90
75994;DHT22;64680;53.800;9.988;2023-10-09T08:36:07;9.10;99.90
75994;DHT22;64680;53.800;9.988;2023-10-09T08:38:40;9.10;99.90
75994;DHT22;64680;53.800;9.988;2023-10-09T08:41:11;9.20;99.90
75994;DHT22;64680;53.800;9.988;2023-10-09T08:43:52;9.20;99.90
75994;DHT22;64680;53.800;9.988;2023-10-09T08:46:26;9.30;99.90
75994;DHT22;64680;53.800;9.988;2023-10-09T08:48:56;9.30;99.90
75994;DHT22;64680;53.800;9.988;2023-10-09T08:51:28;9.30;99.90
75994;DHT22;64680;53.800;9.988;2023-10-09T08:53:55;9.30;99.90
75994;DHT22;64680;53.800;9.988;2023-10-09T08:56:21;9.30;99.90
75994;DHT22;64680;53.800;9.988;2023-10-09T08:58:59;9.30;99.90
75994;DHT22;64680;53.800;9.988;2023-10-09T09:01:27;9.30;99.90
75994;DHT22;64680;53.800;9.988;2023-10-09T09:03:57;9.30;99.90
75994;DHT22;64680;53.800;9.988;2023-10-09T09:06:23;9.40;99.90
75994;DHT22;64680;53.800;9.988;2023-10-09T09:08:49;9.40;99.90
75994;DHT22;64680;53.800;9.988;2023-10-09T09:11:20;9.40;99.90
75994;DHT22;64680;53.800;9.988;2023-10-09T09:16:29;9.50;99.90
75994;DHT22;64680;53.800;9.988;2023-10-09T09:19:06;9.60;99.90
75994;DHT22;64680;53.800;9.988;2023-10-09T09:21:37;9.70;99.90
75994;DHT22;64680;53.800;9.988;2023-10-09T09:24:04;9.60;99.90
75994;DHT22;64680;53.800;9.988;2023-10-09T09:27:00;9.70;99.90
75994;DHT22;64680;53.800;9.988;2023-10-09T09:32:02;9.70;99.90
75994;DHT22;64680;53.800;9.988;2023-10-09T09:34:49;9.70;99.90
75994;DHT22;64680;53.800;9.988;2023-10-09T09:37:27;9.80;99.90
75994;DHT22;64680;53.800;9.988;2023-10-09T09:39:59;9.80;99.90
75994;DHT22;64680;53.800;9.988;2023-10-09T09:42:27;9.80;99.90
75994;DHT22;64680;53.800;9.988;2023-10-09T09:44:54;9.90;99.90
75994;DHT22;64680;53.800;9.988;2023-10-09T09:47:21;9.90;99.90
75994;DHT22;64680;53.800;9.988;2023-10-09T09:49:54;9.90;99.90
75994;DHT22;64680;53.800;9.988;2023-10-09T09:52:28;9.80;99.90
75994;DHT22;64680;53.800;9.988;2023-10-09T09:54:53;9.80;99.90
75994;DHT22;64680;53.800;9.988;2023-10-09T09:57:21;9.90;99.90
75994;DHT22;64680;53.800;9.988;2023-10-09T09:59:52;9.90;99.90
75994;DHT22;64680;53.800;9.988;2023-10-09T10:02:35;9.90;99.90
75994;DHT22;64680;53.800;9.988;2023-10-09T10:05:05;9.90;99.90
75994;DHT22;64680;53.800;9.988;2023-10-09T10:07:34;9.90;99.90
75994;DHT22;64680;53.800;9.988;2023-10-09T10:10:37;10.00;99.90
75994;DHT22;64680;53.800;9.988;2023-10-09T10:13:03;10.10;99.90
75994;DHT22;64680;53.800;9.988;2023-10-09T10:16:04;10.20;99.90
75994;DHT22;64680;53.800;9.988;2023-10-09T10:21:17;10.40;99.90
75994;DHT22;64680;53.800;9.988;2023-10-09T10:23:44;10.50;99.90
75994;DHT22;64680;53.800;9.988;2023-10-09T10:26:17;10.40;99.90
75994;DHT22;64680;53.800;9.988;2023-10-09T10:29:16;10.40;99.90
75994;DHT22;64680;53.800;9.988;2023-10-09T10:31:52;10.40;99.90
75994;DHT22;64680;53.800;9.988;2023-10-09T10:34:20;10.30;99.90
75994;DHT22;64680;53.800;9.988;2023-10-09T10:36:49;10.40;99.90
75994;DHT22;64680;53.800;9.988;2023-10-09T10:39:18;10.40;99.90
75994;DHT22;64680;53.800;9.988;2023-10-09T10:41:57;10.40;99.90
75994;DHT22;64680;53.800;9.988;2023-10-09T10:44:26;10.40;99.90
75994;DHT22;64680;53.800;9.988;2023-10-09T10:47:11;10.40;99.90
75994;DHT22;64680;53.800;9.988;2023-10-09T10:49:59;10.40;99.90
75994;DHT22;64680;53.800;9.988;2023-10-09T10:52:33;10.40;99.90
75994;DHT22;64680;53.800;9.988;2023-10-09T10:55:11;10.40;99.90
75994;DHT22;64680;53.800;9.988;2023-10-09T10:58:15;10.50;99.90
75994;DHT22;64680;53.800;9.988;2023-10-09T11:00:52;10.50;99.90
75994;DHT22;64680;53.800;9.988;2023-10-09T11:03:25;10.50;99.90
75994;DHT22;64680;53.800;9.988;2023-10-09T11:06:09;10.50;99.90
75994;DHT22;64680;53.800;9.988;2023-10-09T11:08:47;10.50;99.90
75994;DHT22;64680;53.800;9.988;2023-10-09T11:11:20;10.50;99.90
75994;DHT22;64680;53.800;9.988;2023-10-09T11:13:46;10.60;99.90
75994;DHT22;64680;53.800;9.988;2023-10-09T11:16:23;10.60;99.90
75994;DHT22;64680;53.800;9.988;2023-10-09T11:19:01;10.60;99.90
75994;DHT22;64680;53.800;9.988;2023-10-09T11:21:38;10.70;99.90
75994;DHT22;64680;53.800;9.988;2023-10-09T11:24:08;10.80;99.90
75994;DHT22;64680;53.800;9.988;2023-10-09T11:26:52;10.80;99.90
75994;DHT22;64680;53.800;9.988;2023-10-09T11:29:22;10.90;99.90
75994;DHT22;64680;53.800;9.988;2023-10-09T11:32:13;11.00;99.90
75994;DHT22;64680;53.800;9.988;2023-10-09T11:34:49;11.00;99.90
75994;DHT22;64680;53.800;9.988;2023-10-09T11:37:20;11.20;99.90
75994;DHT22;64680;53.800;9.988;2023-10-09T11:39:55;11.20;99.90
75994;DHT22;64680;53.800;9.988;2023-10-09T11:42:22;11.20;99.90
75994;DHT22;64680;53.800;9.988;2023-10-09T11:45:07;11.30;99.90
75994;DHT22;64680;53.800;9.988;2023-10-09T11:47:58;11.20;99.90
75994;DHT22;64680;53.800;9.988;2023-10-09T11:50:43;11.20;99.90
75994;DHT22;64680;53.800;9.988;2023-10-09T11:53:10;11.20;99.90
75994;DHT22;64680;53.800;9.988;2023-10-09T11:55:48;11.20;99.90
75994;DHT22;64680;53.800;9.988;2023-10-09T11:58:18;11.20;99.90
75994;DHT22;64680;53.800;9.988;2023-10-09T12:00:58;11.20;99.90
75994;DHT22;64680;53.800;9.988;2023-10-09T12:03:31;11.20;99.90
75994;DHT22;64680;53.800;9.988;2023-10-09T12:06:01;11.20;99.90
75994;DHT22;64680;53.800;9.988;2023-10-09T12:08:31;11.20;99.90
75994;DHT22;64680;53.800;9.988;2023-10-09T12:10:58;11.20;99.90
75994;DHT22;64680;53.800;9.988;2023-10-09T12:13:24;11.20;99.90
75994;DHT22;64680;53.800;9.988;2023-10-09T12:15:51;11.30;99.90
75994;DHT22;64680;53.800;9.988;2023-10-09T12:18:21;11.30;99.90
75994;DHT22;64680;53.800;9.988;2023-10-09T12:20:47;11.30;99.90
75994;DHT22;64680;53.800;9.988;2023-10-09T12:23:17;11.30;99.90
75994;DHT22;64680;53.800;9.988;2023-10-09T12:25:43;11.30;99.90
75994;DHT22;64680;53.800;9.988;2023-10-09T12:28:10;11.30;99.90
75994;DHT22;64680;53.800;9.988;2023-10-09T12:30:38;11.40;99.90
75994;DHT22;64680;53.800;9.988;2023-10-09T12:33:12;11.40;99.90
75994;DHT22;64680;53.800;9.988;2023-10-09T12:35:41;11.40;99.90
75994;DHT22;64680;53.800;9.988;2023-10-09T12:38:07;11.50;99.90
75994;DHT22;64680;53.800;9.988;2023-10-09T12:40:38;11.50;99.90
75994;DHT22;64680;53.800;9.988;2023-10-09T12:43:06;11.50;99.90
75994;DHT22;64680;53.800;9.988;2023-10-09T12:45:41;11.50;99.90
75994;DHT22;64680;53.800;9.988;2023-10-09T12:48:06;11.50;99.90
75994;DHT22;64680;53.800;9.988;2023-10-09T12:50:35;11.60;99.90
75994;DHT22;64680;53.800;9.988;2023-10-09T12:53:07;11.60;99.90
75994;DHT22;64680;53.800;9.988;2023-10-09T12:55:37;11.60;99.90
75994;DHT22;64680;53.800;9.988;2023-10-09T12:58:06;11.60;99.90
75994;DHT22;64680;53.800;9.988;2023-10-09T13:00:34;11.60;99.90
75994;DHT22;64680;53.800;9.988;2023-10-09T13:03:06;11.70;99.90
75994;DHT22;64680;53.800;9.988;2023-10-09T13:05:53;11.70;99.90
75994;DHT22;64680;53.800;9.988;2023-10-09T13:08:23;11.70;99.90
75994;DHT22;64680;53.800;9.988;2023-10-09T13:10:51;11.80;99.90
75994;DHT22;64680;53.800;9.988;2023-10-09T13:13:27;11.80;99.90
75994;DHT22;64680;53.800;9.988;2023-10-09T13:16:25;11.90;99.90
75994;DHT22;64680;53.800;9.988;2023-10-09T13:18:57;11.90;99.90
75994;DHT22;64680;53.800;9.988;2023-10-09T13:21:28;12.00;99.90
75994;DHT22;64680;53.800;9.988;2023-10-09T13:23:57;12.00;99.90
75994;DHT22;64680;53.800;9.988;2023-10-09T13:26:23;12.00;99.90
75994;DHT22;64680;53.800;9.988;2023-10-09T13:28:55;12.00;99.90
75994;DHT22;64680;53.800;9.988;2023-10-09T13:31:22;12.00;99.90
75994;DHT22;64680;53.800;9.988;2023-10-09T13:33:51;11.90;99.90
75994;DHT22;64680;53.800;9.988;2023-10-09T13:36:21;11.90;99.90
75994;DHT22;64680;53.800;9.988;2023-10-09T13:38:56;12.00;99.90
75994;DHT22;64680;53.800;9.988;2023-10-09T13:41:22;12.00;99.90
75994;DHT22;64680;53.800;9.988;2023-10-09T13:43:51;12.00;99.90
75994;DHT22;64680;53.800;9.988;2023-10-09T13:46:17;12.00;99.90
75994;DHT22;64680;53.800;9.988;2023-10-09T13:48:43;12.00;99.90
75994;DHT22;64680;53.800;9.988;2023-10-09T13:51:10;12.00;99.90
75994;DHT22;64680;53.800;9.988;2023-10-09T13:53:43;12.10;99.90
75994;DHT22;64680;53.800;9.988;2023-10-09T13:56:16;12.10;99.90
75994;DHT22;64680;53.800;9.988;2023-10-09T13:58:50;12.10;99.90
75994;DHT22;64680;53.800;9.988;2023-10-09T14:01:17;12.10;99.90
75994;DHT22;64680;53.800;9.988;2023-10-09T14:03:58;12.10;99.90
75994;DHT22;64680;53.800;9.988;2023-10-09T14:06:26;12.10;99.90
75994;DHT22;64680;53.800;9.988;2023-10-09T14:09:02;12.10;99.90
75994;DHT22;64680;53.800;9.988;2023-10-09T14:11:33;12.00;99.90
75994;DHT22;64680;53.800;9.988;2023-10-09T14:14:04;12.00;99.90
75994;DHT22;64680;53.800;9.988;2023-10-09T14:16:35;12.00;99.90
75994;DHT22;64680;53.800;9.988;2023-10-09T14:19:01;12.00;99.90
75994;DHT22;64680;53.800;9.988;2023-10-09T14:21:33;12.00;99.90
75994;DHT22;64680;53.800;9.988;2023-10-09T14:24:03;12.00;99.90
75994;DHT22;64680;53.800;9.988;2023-10-09T14:26:41;12.00;99.90
75994;DHT22;64680;53.800;9.988;2023-10-09T14:29:07;12.00;99.90
75994;DHT22;64680;53.800;9.988;2023-10-09T14:31:33;12.00;99.90
75994;DHT22;64680;53.800;9.988;2023-10-09T14:34:04;12.00;99.90
75994;DHT22;64680;53.800;9.988;2023-10-09T14:36:30;12.00;99.90
75994;DHT22;64680;53.800;9.988;2023-10-09T14:39:00;12.10;99.90
75994;DHT22;64680;53.800;9.988;2023-10-09T14:41:26;12.10;99.90
75994;DHT22;64680;53.800;9.988;2023-10-09T14:43:53;12.10;99.90
75994;DHT22;64680;53.800;9.988;2023-10-09T14:46:20;12.10;99.90
75994;DHT22;64680;53.800;9.988;2023-10-09T14:48:53;12.10;99.90
75994;DHT22;64680;53.800;9.988;2023-10-09T14:51:23;12.10;99.90
75994;DHT22;64680;53.800;9.988;2023-10-09T14:53:56;12.10;99.90
75994;DHT22;64680;53.800;9.988;2023-10-09T14:56:24;12.10;99.90
75994;DHT22;64680;53.800;9.988;2023-10-09T14:58:58;12.20;99.90
75994;DHT22;64680;53.800;9.988;2023-10-09T15:01:28;12.20;99.90
75994;DHT22;64680;53.800;9.988;2023-10-09T15:03:57;12.20;99.90
75994;DHT22;64680;53.800;9.988;2023-10-09T15:06:28;12.20;99.90
75994;DHT22;64680;53.800;9.988;2023-10-09T15:08:58;12.20;99.90
75994;DHT22;64680;53.800;9.988;2023-10-09T15:11:33;12.20;99.90
75994;DHT22;64680;53.800;9.988;2023-10-09T15:13:59;12.10;99.90
75994;DHT22;64680;53.800;9.988;2023-10-09T15:16:25;12.20;99.90
75994;DHT22;64680;53.800;9.988;2023-10-09T15:18:56;12.20;99.90
75994;DHT22;64680;53.800;9.988;2023-10-09T15:21:28;12.20;99.90
75994;DHT22;64680;53.800;9.988;2023-10-09T15:23:57;12.20;99.90
75994;DHT22;64680;53.800;9.988;2023-10-09T15:26:23;12.20;99.90
75994;DHT22;64680;53.800;9.988;2023-10-09T15:28:51;12.20;99.90
75994;DHT22;64680;53.800;9.988;2023-10-09T15:31:17;12.20;99.90
75994;DHT22;64680;53.800;9.988;2023-10-09T15:33:44;12.30;99.90
75994;DHT22;64680;53.800;9.988;2023-10-09T15:36:14;12.20;99.90
75994;DHT22;64680;53.800;9.988;2023-10-09T15:38:40;12.30;99.90
75994;DHT22;64680;53.800;9.988;2023-10-09T15:41:06;12.30;99.90
75994;DHT22;64680;53.800;9.988;2023-10-09T15:43:32;12.30;99.90
75994;DHT22;64680;53.800;9.988;2023-10-09T15:45:59;12.30;99.90
75994;DHT22;64680;53.800;9.988;2023-10-09T15:48:25;12.20;99.90
75994;DHT22;64680;53.800;9.988;2023-10-09T15:50:50;12.20;99.90
75994;DHT22;64680;53.800;9.988;2023-10-09T15:53:17;12.20;99.90
75994;DHT22;64680;53.800;9.988;2023-10-09T15:55:44;12.20;99.90
75994;DHT22;64680;53.800;9.988;2023-10-09T15:58:10;12.20;99.90
75994;DHT22;64680;53.800;9.988;2023-10-09T16:00:35;12.20;99.90
75994;DHT22;64680;53.800;9.988;2023-10-09T16:03:03;12.20;99.90
75994;DHT22;64680;53.800;9.988;2023-10-09T16:05:29;12.20;99.90
75994;DHT22;64680;53.800;9.988;2023-10-09T16:07:57;12.20;99.90
75994;DHT22;64680;53.800;9.988;2023-10-09T16:10:23;12.20;99.90
75994;DHT22;64680;53.800;9.988;2023-10-09T16:12:49;12.20;99.90
75994;DHT22;64680;53.800;9.988;2023-10-09T16:15:18;12.10;99.90
75994;DHT22;64680;53.800;9.988;2023-10-09T16:17:47;12.10;99.90
75994;DHT22;64680;53.800;9.988;2023-10-09T16:20:13;12.20;99.90
75994;DHT22;64680;53.800;9.988;2023-10-09T16:22:51;12.10;99.90
75994;DHT22;64680;53.800;9.988;2023-10-09T16:25:17;12.10;99.90
75994;DHT22;64680;53.800;9.988;2023-10-09T16:27:46;12.10;99.90
75994;DHT22;64680;53.800;9.988;2023-10-09T16:30:16;12.10;99.90
75994;DHT22;64680;53.800;9.988;2023-10-09T16:32:46;12.10;99.90
75994;DHT22;64680;53.800;9.988;2023-10-09T16:35:12;12.10;99.90